Time;durP1;ratioP1;P1;durP2;ratioP2;P2;SDS_P1;SDS_P2;PMS_P1;PMS_P2;Temp;Humidity;BMP_temperature;BMP_pressure;BME280_temperature;BME280_humidity;BME280_pressure;Samples;Min_cycle;Max_cycle;Signal;HPM_P1;HPM_P2
2023/03/20 00:02:38;;;;;;;0.35;0.20;;;12.60;62.90;;;;;;6204039;28;20096;-73
2023/03/20 00:05:39;;;;;;;0.22;0.22;;;12.70;62.70;;;;;;6221859;28;20040;-74
2023/03/20 00:08:40;;;;;;;0.68;0.30;;;12.70;62.30;;;;;;6221827;28;20175;-73
2023/03/20 00:11:47;;;;;;;0.20;0.20;;;12.70;62.10;;;;;;6221708;28;20037;-74
2023/03/20 00:14:48;;;;;;;0.70;0.30;;;12.80;61.90;;;;;;6221443;28;20092;-74
2023/03/20 00:17:52;;;;;;;0.32;0.30;;;12.80;61.70;;;;;;6219435;28;20575;-73
2023/03/20 00:20:54;;;;;;;1.55;0.30;;;12.90;61.60;;;;;;6203886;28;20117;-72
2023/03/20 00:23:55;;;;;;;0.20;0.20;;;13.00;61.40;;;;;;6219691;28;20183;-72
2023/03/20 00:26:56;;;;;;;1.38;0.50;;;13.10;61.10;;;;;;6221121;28;20105;-74
2023/03/20 00:29:57;;;;;;;0.93;0.52;;;13.20;61.00;;;;;;6219141;28;20029;-72
2023/03/20 00:32:59;;;;;;;0.73;0.38;;;13.30;61.10;;;;;;6221204;28;20088;-73
2023/03/20 00:36:01;;;;;;;0.47;0.38;;;13.30;61.20;;;;;;6203264;28;20044;-72
2023/03/20 00:39:03;;;;;;;0.30;0.30;;;13.40;61.60;;;;;;6203360;28;20081;-74
2023/03/20 00:42:06;;;;;;;0.73;0.50;;;13.40;62.10;;;;;;6221228;28;20025;-73
2023/03/20 00:45:13;;;;;;;0.73;0.40;;;13.40;62.40;;;;;;6220039;28;20037;-72
2023/03/20 00:48:15;;;;;;;0.63;0.40;;;13.40;62.60;;;;;;6216600;28;20454;-74
2023/03/20 00:51:17;;;;;;;1.10;0.50;;;13.40;62.70;;;;;;6216005;28;20053;-73
2023/03/20 00:54:18;;;;;;;0.47;0.45;;;13.50;62.70;;;;;;6220686;28;20108;-72
2023/03/20 00:57:40;;;;;;;0.30;0.30;;;13.40;62.70;;;;;;6220491;28;20441;-72
2023/03/20 01:00:43;;;;;;;0.75;0.35;;;13.40;63.00;;;;;;6219134;28;20045;-72
2023/03/20 01:03:44;;;;;;;1.63;0.35;;;13.50;63.10;;;;;;6202837;28;20029;-72
2023/03/20 01:06:46;;;;;;;0.30;0.30;;;13.50;62.90;;;;;;6221357;28;20057;-73
2023/03/20 01:09:47;;;;;;;0.93;0.22;;;13.50;62.80;;;;;;6223387;28;20060;-71
2023/03/20 01:12:48;;;;;;;2.20;0.60;;;13.50;62.70;;;;;;6235743;28;20246;-73
2023/03/20 01:15:51;;;;;;;0.63;0.32;;;13.50;62.60;;;;;;6231428;28;20029;-70
2023/03/20 01:18:53;;;;;;;0.60;0.32;;;13.50;62.40;;;;;;6221328;28;20516;-73
2023/03/20 01:21:54;;;;;;;0.10;0.10;;;13.50;62.30;;;;;;6220646;28;20045;-74
2023/03/20 01:24:55;;;;;;;0.30;0.30;;;13.50;61.80;;;;;;6218701;28;20129;-74
2023/03/20 01:27:56;;;;;;;1.40;0.60;;;13.50;62.30;;;;;;6218251;28;20056;-72
2023/03/20 01:30:59;;;;;;;3.25;0.40;;;13.50;61.40;;;;;;6218719;28;20395;-73
2023/03/20 01:34:01;;;;;;;1.05;0.40;;;13.50;61.50;;;;;;6202724;28;20033;-72
2023/03/20 01:37:03;;;;;;;0.63;0.60;;;13.40;61.50;;;;;;6218706;28;20042;-74
2023/03/20 01:40:21;;;;;;;0.55;0.35;;;13.30;61.60;;;;;;6202522;28;20120;-72
2023/03/20 01:43:24;;;;;;;1.45;0.43;;;13.30;61.90;;;;;;6218279;28;20053;-74
2023/03/20 01:46:30;;;;;;;1.52;0.70;;;13.30;62.10;;;;;;6217946;28;20037;-72
2023/03/20 01:50:32;;;;;;;0.40;0.30;;;13.20;62.10;;;;;;6217455;28;20130;-73
2023/03/20 01:53:44;;;;;;;0.73;0.32;;;13.20;62.40;;;;;;6080572;29;20138;-73
2023/03/20 01:57:11;;;;;;;1.73;1.10;;;13.10;62.60;;;;;;6096222;29;20091;-73
2023/03/20 02:00:15;;;;;;;1.48;0.50;;;13.10;63.00;;;;;;6095969;29;20091;-74
2023/03/20 02:03:18;;;;;;;0.65;0.50;;;13.10;63.00;;;;;;6096007;29;20560;-74
2023/03/20 02:06:39;;;;;;;1.10;0.43;;;13.10;63.10;;;;;;6083053;29;20422;-72
2023/03/20 02:10:12;;;;;;;0.75;0.47;;;13.00;63.10;;;;;;6095571;29;20047;-74
2023/03/20 02:13:26;;;;;;;1.10;0.50;;;13.00;63.10;;;;;;6094633;29;20046;-73
2023/03/20 02:16:27;;;;;;;0.40;0.30;;;13.00;63.10;;;;;;6111798;29;20094;-73
2023/03/20 02:19:48;;;;;;;3.17;0.95;;;13.00;63.00;;;;;;6103658;29;20027;-74
2023/03/20 02:22:49;;;;;;;1.45;0.60;;;13.00;63.00;;;;;;6095947;29;20473;-71
2023/03/20 02:26:10;;;;;;;1.63;0.73;;;13.00;62.90;;;;;;6096232;29;20032;-73
2023/03/20 02:30:10;;;;;;;0.63;0.57;;;13.00;62.90;;;;;;6130648;28;20050;-73
2023/03/20 02:33:30;;;;;;;9.35;0.75;;;13.00;62.90;;;;;;6127003;29;20113;-74
2023/03/20 02:36:46;;;;;;;0.50;0.40;;;13.00;62.60;;;;;;6143029;29;20055;-74
2023/03/20 02:40:01;;;;;;;1.63;0.38;;;13.10;62.60;;;;;;6126494;28;20197;-73
2023/03/20 02:43:23;;;;;;;0.40;0.40;;;13.00;62.50;;;;;;6126774;28;20160;-74
2023/03/20 02:46:45;;;;;;;1.08;0.60;;;13.00;62.60;;;;;;6126610;29;20137;-71
2023/03/20 02:50:14;;;;;;;1.88;0.68;;;13.00;62.80;;;;;;6142551;28;20046;-71
2023/03/20 02:53:32;;;;;;;4.35;0.77;;;13.00;62.90;;;;;;6142442;28;20041;-72
2023/03/20 02:56:47;;;;;;;1.42;0.65;;;13.00;63.10;;;;;;6142535;28;20054;-73
2023/03/20 03:00:00;;;;;;;0.50;0.50;;;13.00;63.30;;;;;;6141975;28;20515;-73
2023/03/20 03:03:13;;;;;;;0.95;0.57;;;13.00;63.40;;;;;;6142455;28;20050;-74
2023/03/20 03:06:18;;;;;;;0.60;0.40;;;12.90;63.40;;;;;;6142404;29;20737;-74
2023/03/20 03:09:24;;;;;;;0.85;0.70;;;12.90;63.50;;;;;;6191560;28;20085;-72
2023/03/20 03:12:36;;;;;;;1.55;0.80;;;12.90;63.60;;;;;;6217569;28;20509;-72
2023/03/20 03:15:41;;;;;;;1.05;0.57;;;12.80;63.70;;;;;;6200127;28;20458;-72
2023/03/20 03:18:45;;;;;;;0.43;0.43;;;12.80;63.80;;;;;;6217560;28;20556;-73
2023/03/20 03:21:47;;;;;;;0.88;0.65;;;12.80;63.80;;;;;;6216403;28;20367;-73
2023/03/20 03:24:52;;;;;;;0.50;0.50;;;12.80;63.70;;;;;;6216318;28;20029;-72
2023/03/20 03:28:21;;;;;;;0.70;0.43;;;12.80;64.60;;;;;;6216333;28;20042;-73
2023/03/20 03:31:24;;;;;;;0.95;0.50;;;12.80;63.80;;;;;;6200732;28;20140;-73
2023/03/20 03:34:26;;;;;;;0.65;0.55;;;12.80;63.80;;;;;;6217281;28;20042;-74
2023/03/20 03:37:45;;;;;;;1.70;0.80;;;12.80;63.90;;;;;;6219793;28;20037;-72
2023/03/20 03:40:51;;;;;;;;;;;12.80;64.00;;;;;;6227709;28;20045;-72
2023/03/20 03:44:15;;;;;;;0.65;0.65;;;12.80;64.00;;;;;;6226036;28;19963;-72
2023/03/20 03:47:30;;;;;;;0.82;0.70;;;12.80;63.90;;;;;;6205482;28;20057;-73
2023/03/20 03:50:48;;;;;;;2.33;0.80;;;12.70;63.80;;;;;;6218401;28;20125;-71
2023/03/20 03:54:01;;;;;;;1.08;0.90;;;12.70;63.90;;;;;;6192621;28;20426;-74
2023/03/20 03:57:04;;;;;;;1.48;0.85;;;12.70;64.10;;;;;;6175773;28;20026;-73
2023/03/20 04:00:07;;;;;;;2.63;0.98;;;12.60;64.10;;;;;;6191984;28;20050;-71
2023/03/20 04:03:16;;;;;;;4.50;1.42;;;12.50;64.20;;;;;;6194700;28;20042;-74
2023/03/20 04:06:18;;;;;;;2.00;1.00;;;12.50;64.40;;;;;;6192867;28;20061;-74
2023/03/20 04:09:19;;;;;;;1.77;1.10;;;12.40;64.50;;;;;;6210637;28;20143;-72
2023/03/20 04:12:37;;;;;;;1.70;0.90;;;12.30;64.60;;;;;;6203660;28;20403;-73
2023/03/20 04:15:39;;;;;;;2.38;1.05;;;12.20;64.70;;;;;;6204354;28;20026;-72
2023/03/20 04:18:42;;;;;;;4.50;1.13;;;12.20;64.90;;;;;;6211678;28;20120;-74
2023/03/20 04:21:45;;;;;;;1.33;0.90;;;12.10;65.00;;;;;;6212163;28;20026;-72
2023/03/20 04:24:47;;;;;;;1.75;1.10;;;12.10;65.20;;;;;;6195714;28;20030;-72
2023/03/20 04:27:49;;;;;;;1.92;1.00;;;12.00;65.20;;;;;;6196849;28;20085;-71
2023/03/20 04:31:14;;;;;;;2.65;1.48;;;12.00;65.40;;;;;;6211631;28;20046;-71
2023/03/20 04:34:44;;;;;;;1.30;1.00;;;12.00;65.40;;;;;;6219493;28;20492;-74
2023/03/20 04:38:18;;;;;;;1.02;0.90;;;11.90;65.50;;;;;;6210038;28;20045;-72
2023/03/20 04:41:20;;;;;;;1.30;1.08;;;11.90;65.60;;;;;;6219513;28;20248;-71
2023/03/20 04:44:24;;;;;;;1.27;1.02;;;11.80;65.60;;;;;;6219605;28;20117;-72
2023/03/20 04:47:25;;;;;;;4.55;1.30;;;11.80;65.70;;;;;;6219345;28;20029;-73
2023/03/20 04:50:27;;;;;;;1.25;0.82;;;11.70;65.70;;;;;;6218943;28;20034;-72
2023/03/20 04:53:29;;;;;;;1.88;0.93;;;11.70;65.80;;;;;;6219410;28;20030;-73
2023/03/20 04:56:30;;;;;;;3.05;1.33;;;11.70;65.80;;;;;;6220441;28;20030;-72
2023/03/20 04:59:45;;;;;;;3.53;1.40;;;11.70;65.90;;;;;;6218988;28;20030;-75
2023/03/20 05:02:46;;;;;;;2.38;1.40;;;11.70;65.80;;;;;;6219274;28;20455;-75
2023/03/20 05:05:49;;;;;;;2.13;1.48;;;11.70;65.80;;;;;;6219368;28;20034;-72
2023/03/20 05:08:50;;;;;;;1.92;1.35;;;11.80;65.80;;;;;;6218621;28;20084;-73
2023/03/20 05:11:53;;;;;;;2.50;1.40;;;11.80;65.70;;;;;;6219046;28;20034;-76
2023/03/20 05:15:13;;;;;;;2.13;1.15;;;11.70;65.50;;;;;;6220353;28;20085;-75
2023/03/20 05:18:14;;;;;;;3.55;1.63;;;11.80;65.50;;;;;;6213812;28;20039;-73
2023/03/20 05:21:48;;;;;;;1.75;0.98;;;11.80;65.50;;;;;;6144732;28;20090;-74
2023/03/20 05:25:22;;;;;;;1.80;1.23;;;11.90;65.30;;;;;;6074201;29;20064;-73
2023/03/20 05:28:51;;;;;;;2.63;1.00;;;12.00;65.00;;;;;;6073495;29;20093;-73
2023/03/20 05:32:12;;;;;;;1.95;1.33;;;12.00;64.70;;;;;;6073517;29;20045;-73
2023/03/20 05:35:36;;;;;;;5.28;1.17;;;12.00;64.30;;;;;;6071009;29;20037;-74
2023/03/20 05:39:10;;;;;;;3.08;1.60;;;12.00;64.30;;;;;;6049549;29;20125;-73
2023/03/20 05:42:26;;;;;;;1.67;1.15;;;12.00;64.40;;;;;;6034459;29;20052;-72
2023/03/20 05:46:02;;;;;;;1.73;1.05;;;12.10;64.20;;;;;;5992421;29;20050;-72
2023/03/20 05:49:17;;;;;;;1.23;0.90;;;12.10;64.00;;;;;;5966075;29;20504;-74
2023/03/20 05:52:41;;;;;;;1.20;1.00;;;12.00;63.90;;;;;;5965774;29;20231;-75
2023/03/20 05:56:12;;;;;;;1.30;0.90;;;12.00;63.90;;;;;;5947365;29;20223;-73
2023/03/20 05:59:25;;;;;;;0.95;0.65;;;12.00;64.00;;;;;;5960638;29;20112;-73
2023/03/20 06:02:47;;;;;;;1.50;0.95;;;12.00;63.90;;;;;;6026427;29;20464;-73
2023/03/20 06:06:08;;;;;;;1.38;0.82;;;12.00;63.90;;;;;;6026822;29;20041;-71
2023/03/20 06:09:09;;;;;;;1.67;1.08;;;12.10;63.90;;;;;;6027160;29;20046;-73
2023/03/20 06:12:11;;;;;;;1.00;0.70;;;12.00;63.70;;;;;;6037397;29;20482;-74
2023/03/20 06:15:13;;;;;;;1.50;0.93;;;12.00;63.70;;;;;;6086936;29;20058;-74
2023/03/20 06:18:19;;;;;;;9.30;1.00;;;12.00;63.70;;;;;;6108554;29;20036;-75
2023/03/20 06:21:20;;;;;;;0.85;0.68;;;11.90;63.50;;;;;;6154992;28;20043;-73
2023/03/20 06:24:21;;;;;;;1.27;1.00;;;12.00;63.40;;;;;;6145069;29;20071;-73
2023/03/20 06:27:23;;;;;;;1.33;0.75;;;12.00;63.40;;;;;;6142923;28;20105;-74
2023/03/20 06:30:24;;;;;;;1.00;0.80;;;12.00;63.20;;;;;;6167077;28;20039;-74
2023/03/20 06:33:25;;;;;;;1.83;0.95;;;12.10;63.20;;;;;;6166949;28;20066;-74
2023/03/20 06:36:33;;;;;;;4.10;1.50;;;12.10;63.10;;;;;;6167107;28;20117;-73
2023/03/20 06:39:40;;;;;;;5.35;3.05;;;12.20;62.90;;;;;;6193262;28;20511;-73
2023/03/20 06:42:45;;;;;;;1.50;0.80;;;12.20;62.90;;;;;;6201522;28;20022;-77
2023/03/20 06:45:47;;;;;;;4.30;1.23;;;12.30;62.70;;;;;;6216919;28;20026;-72
2023/03/20 06:48:56;;;;;;;1.40;0.90;;;12.30;62.60;;;;;;6201258;28;20454;-72
2023/03/20 06:51:58;;;;;;;1.38;1.13;;;12.40;62.40;;;;;;6218434;28;20137;-71
2023/03/20 06:54:59;;;;;;;5.88;1.17;;;12.40;62.30;;;;;;6201355;28;20056;-75
2023/03/20 06:58:00;;;;;;;1.40;1.00;;;12.40;62.40;;;;;;6201344;28;20042;-73
2023/03/20 07:01:08;;;;;;;3.53;1.20;;;12.50;62.50;;;;;;6201789;28;20033;-72
2023/03/20 07:04:11;;;;;;;;;;;12.50;62.40;;;;;;6201116;28;20490;-76
2023/03/20 07:07:19;;;;;;;7.20;1.65;;;12.60;62.20;;;;;;6200837;28;20255;-73
2023/03/20 07:10:22;;;;;;;5.95;1.50;;;12.70;62.00;;;;;;6216617;28;20041;-72
2023/03/20 07:13:27;;;;;;;4.07;1.50;;;12.80;61.90;;;;;;6200674;28;20030;-74
2023/03/20 07:16:30;;;;;;;1.02;0.90;;;13.00;61.90;;;;;;6200224;28;20042;-75
2023/03/20 07:19:32;;;;;;;4.13;1.55;;;13.00;61.60;;;;;;6208358;28;20113;-72
2023/03/20 07:22:33;;;;;;;5.32;1.55;;;13.10;61.50;;;;;;6192213;28;20057;-74
2023/03/20 07:25:53;;;;;;;1.95;1.30;;;13.20;61.40;;;;;;6195098;28;20036;-73
2023/03/20 07:28:54;;;;;;;4.07;1.60;;;13.20;61.20;;;;;;6215925;28;20041;-73
2023/03/20 07:31:59;;;;;;;3.72;2.03;;;13.30;60.90;;;;;;6216803;28;20093;-74
2023/03/20 07:35:06;;;;;;;3.27;1.70;;;13.40;60.90;;;;;;6201607;28;20096;-73
2023/03/20 07:38:07;;;;;;;7.13;2.70;;;13.50;60.80;;;;;;6200412;28;20372;-73
2023/03/20 07:41:16;;;;;;;5.75;2.72;;;13.60;60.70;;;;;;6217592;28;20054;-73
2023/03/20 07:44:26;;;;;;;3.47;1.80;;;13.70;60.60;;;;;;6202501;28;20026;-73
2023/03/20 07:47:27;;;;;;;2.88;1.63;;;13.70;60.50;;;;;;6221509;28;20053;-73
2023/03/20 07:50:28;;;;;;;3.05;1.83;;;13.80;60.60;;;;;;6223543;28;20059;-74
2023/03/20 07:53:29;;;;;;;8.30;2.78;;;13.80;61.50;;;;;;6221602;28;20447;-74
2023/03/20 07:56:30;;;;;;;4.35;2.20;;;13.90;60.70;;;;;;6222358;28;20026;-74
2023/03/20 07:59:31;;;;;;;4.03;2.50;;;13.90;60.80;;;;;;6204438;28;20053;-73
2023/03/20 08:02:33;;;;;;;3.25;2.42;;;13.90;60.80;;;;;;6222164;28;20470;-74
2023/03/20 08:05:35;;;;;;;5.03;2.78;;;14.00;60.70;;;;;;6204226;28;20041;-74
2023/03/20 08:08:36;;;;;;;9.25;2.55;;;14.10;60.60;;;;;;6220174;28;20037;-74
2023/03/20 08:11:37;;;;;;;7.32;3.80;;;14.20;60.30;;;;;;6222069;28;20057;-74
2023/03/20 08:14:38;;;;;;;9.50;3.22;;;14.40;60.20;;;;;;6221780;28;20040;-71
2023/03/20 08:17:43;;;;;;;8.15;3.33;;;14.60;59.90;;;;;;6219470;28;20038;-72
2023/03/20 08:20:46;;;;;;;5.13;2.75;;;14.50;59.70;;;;;;6220588;28;20068;-74
2023/03/20 08:23:54;;;;;;;5.93;3.33;;;14.70;59.50;;;;;;6194941;28;20113;-72
2023/03/20 08:26:55;;;;;;;6.45;3.25;;;14.80;59.20;;;;;;6194683;28;20374;-73
